Time;durP1;ratioP1;P1;durP2;ratioP2;P2;SDS_P1;SDS_P2;PMS_P1;PMS_P2;Temp;Humidity;BMP_temperature;BMP_pressure;BME280_temperature;BME280_humidity;BME280_pressure;Samples;Min_cycle;Max_cycle;Signal;HPM_P1;HPM_P2
2023/08/22 00:00:53;;;;;;;9.48;2.50;;;21.90;99.90;;;;;;5070447;28;20021;-88
2023/08/22 00:03:19;;;;;;;9.35;2.40;;;21.90;99.90;;;;;;5070612;28;20423;-88
2023/08/22 00:05:44;;;;;;;10.02;2.75;;;21.90;99.90;;;;;;5071506;28;20029;-89
2023/08/22 00:08:10;;;;;;;6.28;2.65;;;21.90;99.90;;;;;;5071352;28;20029;-88
2023/08/22 00:10:36;;;;;;;10.93;2.72;;;21.80;99.90;;;;;;5070362;28;20089;-89
2023/08/22 00:13:03;;;;;;;6.47;2.50;;;21.80;99.90;;;;;;5072373;28;20031;-88
2023/08/22 00:15:29;;;;;;;8.38;2.75;;;21.80;99.90;;;;;;5071586;28;20017;-88
2023/08/22 00:17:54;;;;;;;7.10;2.35;;;21.80;99.90;;;;;;5071195;28;20410;-88
2023/08/22 00:20:22;;;;;;;7.28;2.83;;;21.80;99.90;;;;;;5068854;28;20029;-89
2023/08/22 00:22:48;;;;;;;7.63;2.63;;;21.80;99.90;;;;;;5071088;28;20074;-89
2023/08/22 00:25:14;;;;;;;8.32;2.50;;;21.70;99.90;;;;;;5071141;28;20111;-89
2023/08/22 00:27:39;;;;;;;8.27;2.70;;;21.70;99.90;;;;;;5069958;28;20067;-87
2023/08/22 00:30:07;;;;;;;7.47;2.60;;;21.80;99.90;;;;;;5071612;28;20541;-88
2023/08/22 00:32:33;;;;;;;5.37;2.50;;;21.80;99.90;;;;;;5071702;28;20052;-89
2023/08/22 00:34:59;;;;;;;5.65;2.40;;;21.80;99.90;;;;;;5069951;28;20275;-91
2023/08/22 00:37:24;;;;;;;7.88;2.50;;;21.70;99.90;;;;;;5071311;28;20035;-89
2023/08/22 00:39:50;;;;;;;7.18;2.85;;;21.70;99.90;;;;;;5070774;28;20392;-89
2023/08/22 00:42:15;;;;;;;6.75;2.45;;;21.60;99.90;;;;;;5070984;28;20435;-89
2023/08/22 00:44:41;;;;;;;9.35;2.78;;;21.70;99.90;;;;;;5069952;28;20037;-90
2023/08/22 00:47:07;;;;;;;9.82;2.80;;;21.70;99.90;;;;;;5069492;28;20032;-89
2023/08/22 00:49:34;;;;;;;5.10;2.40;;;21.70;99.90;;;;;;5070442;28;20063;-93
2023/08/22 00:52:02;;;;;;;10.65;3.03;;;21.70;99.90;;;;;;5070731;28;20436;-90
2023/08/22 00:54:30;;;;;;;10.45;2.95;;;21.50;99.90;;;;;;5070432;28;20324;-88
2023/08/22 00:56:56;;;;;;;7.13;2.60;;;21.50;99.90;;;;;;5070172;28;20054;-91
2023/08/22 00:59:26;;;;;;;10.18;2.90;;;21.50;99.90;;;;;;5081141;28;20039;-90
2023/08/22 01:01:52;;;;;;;10.75;2.92;;;21.50;99.90;;;;;;5091112;28;20028;-88
2023/08/22 01:04:18;;;;;;;8.40;2.67;;;21.40;99.90;;;;;;5090808;28;20020;-88
2023/08/22 01:07:03;;;;;;;7.63;3.17;;;21.40;99.90;;;;;;5089430;28;20522;-88
2023/08/22 01:09:40;;;;;;;9.93;3.20;;;21.40;99.90;;;;;;5080915;28;20240;-89
2023/08/22 01:12:24;;;;;;;9.32;3.05;;;21.20;99.90;;;;;;5071601;28;20096;-87
2023/08/22 01:15:00;;;;;;;8.93;3.08;;;21.20;99.90;;;;;;5068548;28;20032;-88
2023/08/22 01:17:26;;;;;;;11.18;3.10;;;21.20;99.90;;;;;;5070060;28;20480;-88
2023/08/22 01:19:52;;;;;;;8.18;3.22;;;21.10;99.90;;;;;;5069977;28;20039;-89
2023/08/22 01:22:24;;;;;;;7.30;2.90;;;21.10;99.90;;;;;;5069631;28;20025;-88
2023/08/22 01:24:49;;;;;;;8.85;3.03;;;21.10;99.90;;;;;;5069681;28;20052;-88
2023/08/22 01:27:17;;;;;;;11.15;3.30;;;21.10;99.90;;;;;;5070055;28;20071;-88
2023/08/22 01:29:55;;;;;;;8.80;2.95;;;21.00;99.90;;;;;;5068073;28;20046;-89
2023/08/22 01:32:29;;;;;;;11.55;3.15;;;21.00;99.90;;;;;;5069505;28;20028;-89
2023/08/22 01:35:00;;;;;;;6.88;3.15;;;21.10;99.90;;;;;;5068858;28;20029;-88
2023/08/22 01:37:29;;;;;;;9.25;3.17;;;21.10;99.90;;;;;;5068672;28;20020;-88
2023/08/22 01:39:57;;;;;;;9.50;2.88;;;21.00;99.90;;;;;;5069871;28;20028;-89
2023/08/22 01:42:23;;;;;;;7.03;2.70;;;20.90;99.90;;;;;;5068177;28;20484;-88
2023/08/22 01:44:49;;;;;;;5.72;3.08;;;21.00;99.90;;;;;;5068202;28;20408;-88
2023/08/22 01:47:15;;;;;;;10.70;3.40;;;21.00;99.90;;;;;;5068939;28;20038;-88
2023/08/22 01:49:41;;;;;;;11.40;3.00;;;21.00;99.90;;;;;;5070067;28;20386;-88
2023/08/22 01:52:06;;;;;;;10.63;3.97;;;20.80;99.90;;;;;;5070484;28;20035;-89
2023/08/22 01:54:33;;;;;;;8.43;2.88;;;20.80;99.90;;;;;;5069643;28;20496;-88
2023/08/22 01:56:59;;;;;;;11.00;3.10;;;20.80;99.90;;;;;;5069783;28;20028;-88
2023/08/22 01:59:25;;;;;;;10.48;4.03;;;20.70;99.90;;;;;;5068654;28;20043;-90
2023/08/22 02:01:50;;;;;;;7.32;3.50;;;20.80;99.90;;;;;;5069551;28;20097;-88
2023/08/22 02:04:16;;;;;;;7.63;3.30;;;20.60;99.90;;;;;;5067661;28;20027;-88
2023/08/22 02:06:42;;;;;;;10.57;3.60;;;20.70;99.90;;;;;;5069635;28;20484;-88
2023/08/22 02:09:07;;;;;;;6.80;2.97;;;20.50;99.90;;;;;;5070378;28;20036;-89
2023/08/22 02:11:33;;;;;;;10.68;3.30;;;20.50;99.90;;;;;;5068144;28;20021;-88
2023/08/22 02:13:59;;;;;;;6.30;3.17;;;20.50;99.90;;;;;;5068346;28;20028;-89
2023/08/22 02:16:24;;;;;;;6.47;3.10;;;20.60;99.90;;;;;;5069546;28;20476;-88
2023/08/22 02:18:50;;;;;;;10.15;3.30;;;20.50;99.90;;;;;;5068846;28;20491;-89
2023/08/22 02:21:17;;;;;;;11.90;3.58;;;20.50;99.90;;;;;;5069506;28;20021;-89
2023/08/22 02:23:46;;;;;;;8.60;3.50;;;20.40;99.90;;;;;;5069901;28;20033;-88
2023/08/22 02:26:11;;;;;;;7.70;3.75;;;20.40;99.90;;;;;;5070131;28;20116;-88
2023/08/22 02:28:37;;;;;;;14.80;3.60;;;20.30;99.90;;;;;;5068588;28;20100;-87
2023/08/22 02:31:02;;;;;;;8.63;3.03;;;20.20;99.90;;;;;;5068933;28;20389;-88
2023/08/22 02:33:29;;;;;;;10.07;3.38;;;20.30;99.90;;;;;;5067801;28;20025;-89
2023/08/22 02:35:54;;;;;;;7.85;3.40;;;20.30;99.90;;;;;;5068041;28;20036;-89
2023/08/22 02:38:20;;;;;;;6.63;3.05;;;20.30;99.90;;;;;;5068644;28;20028;-90
2023/08/22 02:40:46;;;;;;;7.75;3.28;;;20.30;99.90;;;;;;5069531;28;20016;-88
2023/08/22 02:43:11;;;;;;;6.35;3.25;;;20.30;99.90;;;;;;5072158;28;21659;-89
2023/08/22 02:45:37;;;;;;;6.72;3.58;;;20.30;99.90;;;;;;5073481;28;20388;-88
2023/08/22 02:48:03;;;;;;;8.48;3.30;;;20.20;99.90;;;;;;5072980;28;20028;-90
2023/08/22 02:50:29;;;;;;;7.50;3.00;;;20.30;99.90;;;;;;5073114;28;20028;-91
2023/08/22 02:52:55;;;;;;;7.55;3.20;;;20.30;99.90;;;;;;5071951;28;20032;-90
2023/08/22 02:55:20;;;;;;;5.68;3.15;;;20.30;99.90;;;;;;5071882;28;20025;-87
2023/08/22 02:57:46;;;;;;;6.70;3.00;;;20.20;99.90;;;;;;5071939;28;20029;-86
2023/08/22 03:00:13;;;;;;;5.88;3.13;;;20.20;99.90;;;;;;5070617;28;20035;-86
2023/08/22 03:02:39;;;;;;;6.55;3.00;;;20.10;99.90;;;;;;5073785;28;20028;-87
2023/08/22 03:05:08;;;;;;;6.40;3.38;;;20.20;99.90;;;;;;5077193;28;20077;-86
2023/08/22 03:07:34;;;;;;;10.48;3.25;;;20.20;99.90;;;;;;5067123;28;20456;-87
2023/08/22 03:10:03;;;;;;;6.07;2.95;;;20.20;99.90;;;;;;5069042;28;20095;-85
2023/08/22 03:12:28;;;;;;;9.73;3.05;;;20.10;99.90;;;;;;5065700;28;20028;-87
2023/08/22 03:14:54;;;;;;;9.63;3.03;;;20.10;99.90;;;;;;5068743;28;20035;-88
2023/08/22 03:17:20;;;;;;;5.82;3.08;;;20.00;99.90;;;;;;5070232;28;20420;-87
2023/08/22 03:19:45;;;;;;;4.18;2.90;;;20.10;99.90;;;;;;5072913;28;20053;-86
2023/08/22 03:22:14;;;;;;;8.32;3.35;;;20.00;99.90;;;;;;5072039;28;20081;-87
2023/08/22 03:24:39;;;;;;;7.80;2.88;;;20.00;99.90;;;;;;5072110;28;20025;-87
2023/08/22 03:27:05;;;;;;;5.32;2.90;;;19.90;99.90;;;;;;5070179;28;20071;-87
2023/08/22 03:29:31;;;;;;;6.35;2.70;;;19.90;99.90;;;;;;5072094;28;20029;-89
2023/08/22 03:31:58;;;;;;;6.50;2.70;;;19.80;99.90;;;;;;5072618;28;20024;-85
2023/08/22 03:34:23;;;;;;;6.30;3.17;;;19.90;99.90;;;;;;5071645;28;20482;-89
2023/08/22 03:36:49;;;;;;;9.27;3.35;;;19.90;99.90;;;;;;5059398;28;20116;-88
2023/08/22 03:39:15;;;;;;;6.93;3.17;;;19.90;99.90;;;;;;5074584;28;20087;-86
2023/08/22 03:41:40;;;;;;;7.35;3.20;;;19.80;99.90;;;;;;5071699;28;20088;-88
2023/08/22 03:44:06;;;;;;;8.88;3.55;;;19.80;99.90;;;;;;5071857;28;20208;-89
2023/08/22 03:46:32;;;;;;;10.52;3.53;;;19.70;99.90;;;;;;5073588;28;20086;-86
2023/08/22 03:48:57;;;;;;;5.60;3.15;;;19.70;99.90;;;;;;5073387;28;20029;-88
2023/08/22 03:51:23;;;;;;;10.45;3.70;;;19.80;99.90;;;;;;5073111;28;20429;-88
2023/08/22 03:53:49;;;;;;;10.23;4.00;;;19.70;99.90;;;;;;5070787;28;20056;-87
2023/08/22 03:56:15;;;;;;;8.68;4.22;;;19.70;99.90;;;;;;5072446;28;20025;-87
2023/08/22 03:58:41;;;;;;;10.48;4.40;;;19.70;99.90;;;;;;5071871;28;20549;-86
2023/08/22 04:01:06;;;;;;;10.15;4.55;;;19.70;99.90;;;;;;5072437;28;20074;-87
2023/08/22 04:03:32;;;;;;;13.55;4.43;;;19.70;99.90;;;;;;5083921;28;20025;-88
2023/08/22 04:05:59;;;;;;;14.57;4.40;;;19.50;99.90;;;;;;5080629;28;20384;-88
2023/08/22 04:08:25;;;;;;;6.57;3.80;;;19.50;99.90;;;;;;5091376;28;20078;-88
2023/08/22 04:10:52;;;;;;;9.73;3.80;;;19.50;99.90;;;;;;5091491;28;20024;-87
2023/08/22 04:13:18;;;;;;;8.40;4.17;;;19.60;99.90;;;;;;5083585;28;20107;-87
2023/08/22 04:15:43;;;;;;;9.00;4.00;;;19.60;99.90;;;;;;5071567;28;20338;-87
2023/08/22 04:18:09;;;;;;;9.77;4.40;;;19.60;99.90;;;;;;5071379;28;20028;-86
2023/08/22 04:20:35;;;;;;;10.18;4.45;;;19.70;99.90;;;;;;5071088;28;20024;-86
2023/08/22 04:23:00;;;;;;;8.45;4.30;;;19.70;99.90;;;;;;5071064;28;20020;-87
2023/08/22 04:25:26;;;;;;;8.93;3.85;;;19.60;99.90;;;;;;5068895;28;20032;-87
2023/08/22 04:27:52;;;;;;;6.47;3.60;;;19.60;99.90;;;;;;5070630;28;20043;-86
2023/08/22 04:30:17;;;;;;;9.38;3.88;;;19.70;99.90;;;;;;5071673;28;20024;-88
2023/08/22 04:32:44;;;;;;;9.95;3.78;;;19.60;99.90;;;;;;5069441;28;20066;-87
2023/08/22 04:35:10;;;;;;;10.18;3.97;;;19.60;99.90;;;;;;5070947;28;20219;-87
2023/08/22 04:37:35;;;;;;;10.68;4.05;;;19.60;99.90;;;;;;5070618;28;20078;-86
2023/08/22 04:40:02;;;;;;;7.07;3.90;;;19.60;99.90;;;;;;5069949;28;20058;-86
2023/08/22 04:42:28;;;;;;;6.82;3.38;;;19.50;99.90;;;;;;5070726;28;20040;-88
2023/08/22 04:44:54;;;;;;;6.82;3.70;;;19.50;99.90;;;;;;5070696;28;20041;-86
2023/08/22 04:47:20;;;;;;;11.70;3.90;;;19.40;99.90;;;;;;5070672;28;20479;-86
2023/08/22 04:49:46;;;;;;;7.97;3.92;;;19.50;99.90;;;;;;5071347;28;20021;-86
2023/08/22 04:52:11;;;;;;;10.88;4.20;;;19.50;99.90;;;;;;5060970;28;20028;-88
2023/08/22 04:54:37;;;;;;;7.22;3.67;;;19.60;99.90;;;;;;5065927;28;20024;-87
2023/08/22 04:57:03;;;;;;;11.00;3.97;;;19.60;99.90;;;;;;5069836;28;20028;-89
2023/08/22 04:59:29;;;;;;;9.43;3.90;;;19.60;99.90;;;;;;5066612;28;20052;-85
2023/08/22 05:01:54;;;;;;;8.02;3.70;;;19.60;99.90;;;;;;5062211;28;20025;-89
2023/08/22 05:04:20;;;;;;;6.00;3.25;;;19.70;99.90;;;;;;5070346;28;20020;-89
2023/08/22 05:06:48;;;;;;;7.07;4.05;;;19.70;99.90;;;;;;5072361;28;20613;-91
2023/08/22 05:09:14;;;;;;;11.98;4.00;;;19.60;99.90;;;;;;5091485;28;20024;-93
2023/08/22 05:11:42;;;;;;;12.82;4.45;;;19.90;99.90;;;;;;5090199;28;20028;-93
2023/08/22 05:14:09;;;;;;;10.15;3.63;;;19.60;99.90;;;;;;5070957;28;20042;-92
2023/08/22 05:16:35;;;;;;;10.65;3.80;;;19.60;99.90;;;;;;5070845;28;20056;-92
2023/08/22 05:19:01;;;;;;;6.28;3.55;;;19.60;99.90;;;;;;5088445;28;20021;-94
2023/08/22 05:21:26;;;;;;;8.65;3.50;;;19.60;99.90;;;;;;5091483;28;20077;-91
2023/08/22 05:23:52;;;;;;;12.18;3.88;;;19.60;99.90;;;;;;5074899;28;20643;-93
2023/08/22 05:26:18;;;;;;;11.25;4.32;;;19.60;99.90;;;;;;5070638;28;20547;-91
2023/08/22 05:28:44;;;;;;;10.80;3.60;;;19.70;99.90;;;;;;5070885;28;20033;-91
2023/08/22 05:31:21;;;;;;;8.30;3.50;;;19.50;99.90;;;;;;5050370;28;20138;-92
2023/08/22 05:33:47;;;;;;;9.65;3.55;;;19.60;99.90;;;;;;5058307;28;20044;-91
2023/08/22 05:36:13;;;;;;;7.50;3.28;;;19.70;99.90;;;;;;5069031;28;20500;-92
2023/08/22 05:38:39;;;;;;;10.00;3.47;;;19.70;99.90;;;;;;5069039;28;20100;-91
2023/08/22 05:41:05;;;;;;;8.02;3.60;;;19.60;99.90;;;;;;5069941;28;20104;-92
2023/08/22 05:43:31;;;;;;;10.10;3.55;;;19.60;99.90;;;;;;5071258;28;20032;-92
2023/08/22 05:45:56;;;;;;;10.52;3.50;;;19.60;99.90;;;;;;5071620;28;20020;-92
2023/08/22 05:48:22;;;;;;;10.23;3.22;;;19.60;99.90;;;;;;5070287;28;20040;-91
2023/08/22 05:50:48;;;;;;;9.05;3.15;;;19.60;99.90;;;;;;5070154;28;20035;-92
2023/08/22 05:53:13;;;;;;;8.18;3.38;;;19.50;99.90;;;;;;5070432;28;20381;-92
2023/08/22 05:55:39;;;;;;;9.38;3.15;;;19.60;99.90;;;;;;5071894;28;20451;-90
2023/08/22 05:58:05;;;;;;;9.80;3.63;;;19.60;99.90;;;;;;5072056;28;20538;-90
2023/08/22 06:00:30;;;;;;;9.43;3.22;;;19.60;99.90;;;;;;5072112;28;20031;-91
2023/08/22 06:02:57;;;;;;;12.90;3.28;;;19.50;99.90;;;;;;5070992;28;20024;-92
2023/08/22 06:05:22;;;;;;;10.15;3.67;;;19.70;99.90;;;;;;5072179;28;20458;-90
2023/08/22 06:07:48;;;;;;;8.38;3.10;;;19.70;99.90;;;;;;5072059;28;20051;-90
2023/08/22 06:10:13;;;;;;;11.55;3.25;;;19.80;99.90;;;;;;5069709;28;20024;-89
2023/08/22 06:12:39;;;;;;;9.52;3.53;;;19.70;99.90;;;;;;5069653;28;20643;-90
2023/08/22 06:15:06;;;;;;;10.90;3.28;;;19.70;99.90;;;;;;5080716;28;20594;-89
2023/08/22 06:17:32;;;;;;;5.78;3.20;;;19.80;99.90;;;;;;5076037;28;20021;-93
2023/08/22 06:19:57;;;;;;;11.15;3.50;;;19.80;99.90;;;;;;5068943;28;20503;-91
2023/08/22 06:22:25;;;;;;;7.93;3.53;;;19.80;99.90;;;;;;5070168;28;20134;-91
2023/08/22 06:24:51;;;;;;;8.65;3.22;;;19.80;99.90;;;;;;5073830;28;20017;-90
2023/08/22 06:27:17;;;;;;;10.50;2.95;;;19.80;99.90;;;;;;5069331;28;20036;-90
2023/08/22 06:29:43;;;;;;;8.68;2.80;;;19.80;99.90;;;;;;5067949;28;20029;-93
2023/08/22 06:32:08;;;;;;;5.85;2.78;;;20.00;99.90;;;;;;5087325;28;20028;-89
2023/08/22 06:34:34;;;;;;;8.93;3.00;;;19.90;99.90;;;;;;5078456;28;20454;-91
2023/08/22 06:37:00;;;;;;;9.27;2.72;;;20.00;99.90;;;;;;5063137;28;20017;-89
2023/08/22 06:39:26;;;;;;;9.98;2.78;;;20.00;99.90;;;;;;5054338;28;20029;-90
2023/08/22 06:41:51;;;;;;;12.38;3.08;;;20.10;99.90;;;;;;5072698;28;20052;-92
2023/08/22 06:44:17;;;;;;;12.02;2.78;;;20.20;99.90;;;;;;5075886;28;20396;-90
2023/08/22 06:46:43;;;;;;;5.93;2.60;;;20.10;99.90;;;;;;5090033;28;20028;-91
2023/08/22 06:49:09;;;;;;;4.45;2.40;;;20.20;99.90;;;;;;5077815;28;20063;-89
2023/08/22 06:51:34;;;;;;;8.05;2.95;;;20.20;99.90;;;;;;5069604;28;20017;-90
2023/08/22 06:54:00;;;;;;;5.88;2.72;;;20.30;99.90;;;;;;5080631;28;20020;-89
2023/08/22 06:56:26;;;;;;;8.90;3.08;;;20.30;99.90;;;;;;5071663;28;20061;-90
2023/08/22 06:58:52;;;;;;;6.38;2.45;;;20.30;99.90;;;;;;5070364;28;20024;-90
2023/08/22 07:01:18;;;;;;;7.78;2.80;;;20.40;99.90;;;;;;5068759;28;20369;-90
2023/08/22 07:03:44;;;;;;;6.57;2.80;;;20.30;99.90;;;;;;5069991;28;20473;-90
2023/08/22 07:14:54;;;;;;;9.93;3.20;;;20.20;99.90;;;;;;5195376;22;20065;-94
2023/08/22 07:33:38;;;;;;;7.80;2.70;;;20.40;99.90;;;;;;5026736;28;20198;-87
2023/08/22 07:36:04;;;;;;;7.40;2.28;;;20.70;99.90;;;;;;5021359;28;20115;-87
2023/08/22 07:38:29;;;;;;;6.65;2.20;;;20.70;99.90;;;;;;5033594;28;20021;-87
2023/08/22 07:40:55;;;;;;;10.27;2.10;;;20.90;99.90;;;;;;5034640;28;20666;-88
2023/08/22 07:43:21;;;;;;;9.52;2.28;;;20.80;99.90;;;;;;5033902;28;20116;-90
2023/08/22 07:45:46;;;;;;;5.72;2.13;;;20.80;99.90;;;;;;5034445;28;20033;-88
2023/08/22 07:48:12;;;;;;;7.20;2.30;;;20.90;99.90;;;;;;5051874;28;20037;-87
2023/08/22 07:50:38;;;;;;;7.00;1.90;;;21.10;99.90;;;;;;5033892;28;20436;-87
2023/08/22 07:53:05;;;;;;;6.30;2.20;;;21.10;99.90;;;;;;5033265;28;20021;-89
2023/08/22 07:55:31;;;;;;;3.67;1.92;;;21.20;99.90;;;;;;5051476;28;20021;-88
2023/08/22 07:57:56;;;;;;;5.85;2.05;;;21.20;99.90;;;;;;5034819;28;20075;-88
2023/08/22 08:00:22;;;;;;;6.25;2.10;;;21.30;99.90;;;;;;5035214;28;20045;-92
2023/08/22 08:02:49;;;;;;;4.45;1.90;;;21.30;99.90;;;;;;5029878;28;20022;-89
2023/08/22 08:05:15;;;;;;;6.50;2.00;;;21.50;99.90;;;;;;5040112;28;20030;-91
2023/08/22 08:07:41;;;;;;;4.82;1.80;;;21.50;99.90;;;;;;5011753;28;21884;-92
2023/08/22 08:10:07;;;;;;;4.65;1.73;;;21.60;99.90;;;;;;5013482;28;20025;-89
2023/08/22 08:12:33;;;;;;;3.72;1.90;;;21.80;99.90;;;;;;5011357;28;20091;-88
2023/08/22 08:14:59;;;;;;;6.78;2.08;;;22.00;99.90;;;;;;5014102;28;20033;-88
2023/08/22 08:17:25;;;;;;;7.45;2.03;;;22.10;99.90;;;;;;5034695;28;20443;-87
2023/08/22 08:19:51;;;;;;;7.00;2.05;;;22.00;99.90;;;;;;5051352;28;20070;-89
2023/08/22 08:22:16;;;;;;;6.32;1.88;;;22.00;99.90;;;;;;5042769;28;20034;-92
2023/08/22 08:24:43;;;;;;;5.47;2.28;;;22.20;99.90;;;;;;5029862;28;20017;-89
2023/08/22 08:27:08;;;;;;;4.60;1.70;;;22.20;99.90;;;;;;5011144;28;20045;-88
2023/08/22 08:29:34;;;;;;;9.50;2.35;;;22.20;99.90;;;;;;5031450;28;20386;-93
2023/08/22 08:32:00;;;;;;;5.95;2.08;;;22.30;99.90;;;;;;5030442;28;20022;-87
2023/08/22 08:34:26;;;;;;;5.38;1.80;;;22.40;99.90;;;;;;5030191;28;20039;-88
2023/08/22 08:36:52;;;;;;;3.92;1.55;;;22.40;99.90;;;;;;5008149;28;20262;-90
2023/08/22 08:39:18;;;;;;;5.43;1.67;;;22.50;99.90;;;;;;5018902;28;20021;-87
2023/08/22 08:41:56;;;;;;;5.00;1.80;;;22.80;99.90;;;;;;5050134;28;20096;-87
2023/08/22 08:44:23;;;;;;;5.25;1.85;;;22.90;99.90;;;;;;5036067;28;20033;-92
2023/08/22 08:46:49;;;;;;;10.20;2.00;;;22.70;99.90;;;;;;5032619;28;20037;-92
2023/08/22 08:49:15;;;;;;;4.53;1.90;;;22.80;99.90;;;;;;5050703;28;20025;-91
2023/08/22 08:51:42;;;;;;;3.83;1.70;;;22.80;99.90;;;;;;5050616;28;20021;-89
2023/08/22 08:54:10;;;;;;;7.77;1.90;;;23.00;99.90;;;;;;5050468;28;20032;-92
2023/08/22 08:56:35;;;;;;;7.25;2.08;;;22.90;99.90;;;;;;5032530;28;20025;-91
2023/08/22 08:59:02;;;;;;;7.07;1.75;;;23.00;99.90;;;;;;5033614;28;20035;-87
2023/08/22 09:01:29;;;;;;;4.47;1.60;;;22.90;99.90;;;;;;5050993;28;20103;-87
2023/08/22 09:03:54;;;;;;;6.05;2.22;;;23.10;99.90;;;;;;5050316;28;20021;-88
2023/08/22 09:06:20;;;;;;;5.18;1.88;;;23.00;99.90;;;;;;5032361;28;20029;-87
2023/08/22 09:09:04;;;;;;;8.55;2.00;;;23.00;99.90;;;;;;5019112;28;20030;-88
2023/08/22 09:11:29;;;;;;;3.67;1.60;;;23.10;99.90;;;;;;5010959;28;20034;-87
2023/08/22 09:13:56;;;;;;;6.07;1.90;;;23.10;99.90;;;;;;5028443;28;20104;-87
2023/08/22 09:16:26;;;;;;;6.10;1.95;;;23.10;99.90;;;;;;5010738;28;20032;-88
2023/08/22 09:18:52;;;;;;;7.22;1.85;;;23.10;99.90;;;;;;5028707;28;20501;-88
2023/08/22 09:21:17;;;;;;;6.88;1.80;;;23.00;99.90;;;;;;5030371;28;20057;-88
2023/08/22 09:23:49;;;;;;;9.02;1.70;;;23.10;99.90;;;;;;5029557;28;20036;-92
2023/08/22 09:26:23;;;;;;;6.97;1.85;;;23.10;99.90;;;;;;5029341;28;20477;-89
2023/08/22 09:28:49;;;;;;;6.47;1.88;;;23.10;99.90;;;;;;5029127;28;20095;-91
2023/08/22 09:31:24;;;;;;;3.30;1.58;;;23.20;99.90;;;;;;5028156;28;20425;-94
2023/08/22 09:33:50;;;;;;;5.13;1.70;;;23.20;99.90;;;;;;5027981;28;20547;-93
2023/08/22 09:36:20;;;;;;;8.40;2.22;;;23.30;99.90;;;;;;5029778;28;20026;-92
2023/08/22 09:39:05;;;;;;;3.08;1.40;;;23.40;99.90;;;;;;5028531;28;20112;-93
2023/08/22 09:41:31;;;;;;;6.38;1.80;;;23.40;99.90;;;;;;5030311;28;20018;-87
2023/08/22 09:44:00;;;;;;;6.40;1.83;;;23.50;99.90;;;;;;5029207;28;20104;-91
2023/08/22 09:46:26;;;;;;;4.10;1.48;;;23.50;99.90;;;;;;5029271;28;20029;-86
2023/08/22 09:48:55;;;;;;;4.47;2.13;;;23.60;99.90;;;;;;5026689;28;20044;-91
2023/08/22 09:51:21;;;;;;;5.00;1.92;;;23.60;99.90;;;;;;5029330;28;20028;-91
2023/08/22 09:53:50;;;;;;;6.70;1.65;;;23.70;99.90;;;;;;5011725;28;20485;-88
2023/08/22 09:56:20;;;;;;;7.60;2.00;;;23.80;99.90;;;;;;5016414;28;20033;-89
2023/08/22 09:58:46;;;;;;;6.45;1.67;;;23.60;99.90;;;;;;5020245;28;20559;-91
2023/08/22 10:01:16;;;;;;;5.95;1.67;;;23.60;99.90;;;;;;5029523;28;20104;-88
2023/08/22 10:03:47;;;;;;;8.45;1.55;;;23.90;99.90;;;;;;5012062;28;20063;-87
2023/08/22 10:06:14;;;;;;;5.50;1.70;;;24.00;99.90;;;;;;5012104;28;20027;-89
2023/08/22 10:08:45;;;;;;;3.28;1.42;;;23.90;99.90;;;;;;5008387;28;20038;-91
2023/08/22 10:11:13;;;;;;;4.32;1.60;;;23.90;99.90;;;;;;5017578;28;20028;-87
2023/08/22 10:13:39;;;;;;;;;;;23.80;99.90;;;;;;5028166;28;20025;-91
2023/08/22 10:16:05;;;;;;;5.35;1.40;;;23.70;99.90;;;;;;5012115;28;19915;-91
2023/08/22 10:18:31;;;;;;;4.85;1.35;;;23.70;99.90;;;;;;5027776;28;20032;-87
2023/08/22 10:20:57;;;;;;;4.63;1.40;;;23.70;99.90;;;;;;5028683;28;20042;-87
2023/08/22 10:23:51;;;;;;;2.60;1.23;;;23.70;99.90;;;;;;5027619;28;20029;-86
2023/08/22 10:26:17;;;;;;;2.78;1.05;;;23.90;99.90;;;;;;5028079;28;20516;-87
2023/08/22 10:28:43;;;;;;;3.42;1.33;;;23.90;99.90;;;;;;5027103;28;20038;-86
2023/08/22 10:31:11;;;;;;;3.22;1.30;;;23.90;99.90;;;;;;5026947;28;20478;-91
2023/08/22 10:33:37;;;;;;;6.00;1.60;;;24.00;99.90;;;;;;5009810;28;20524;-90
2023/08/22 10:36:16;;;;;;;6.90;1.80;;;24.00;99.90;;;;;;5026069;28;20105;-86
2023/08/22 10:39:08;;;;;;;3.50;1.42;;;24.00;99.90;;;;;;5033306;28;20028;-87
2023/08/22 10:41:54;;;;;;;2.60;1.30;;;24.20;99.90;;;;;;5046129;28;20041;-86
2023/08/22 10:44:26;;;;;;;2.55;1.20;;;24.30;99.90;;;;;;5037377;28;20103;-87
2023/08/22 10:47:06;;;;;;;2.72;1.27;;;24.50;99.90;;;;;;5030913;28;20573;-86
2023/08/22 10:49:33;;;;;;;3.35;1.50;;;24.40;99.90;;;;;;5031012;28;20435;-90
2023/08/22 10:52:09;;;;;;;7.25;1.70;;;24.20;99.90;;;;;;5048848;28;20029;-87
2023/08/22 10:55:00;;;;;;;6.03;1.58;;;24.30;99.90;;;;;;5047903;28;20032;-91
2023/08/22 10:57:27;;;;;;;2.85;1.23;;;24.40;99.90;;;;;;5005306;28;20022;-88
2023/08/22 11:00:07;;;;;;;3.05;1.20;;;24.50;99.90;;;;;;5010716;28;20397;-89
2023/08/22 11:02:35;;;;;;;7.63;1.50;;;24.60;99.90;;;;;;5047094;28;20032;-87
2023/08/22 11:05:05;;;;;;;4.28;1.48;;;24.80;99.90;;;;;;5051926;28;20061;-86
2023/08/22 11:07:31;;;;;;;5.18;1.67;;;24.60;99.90;;;;;;5041158;28;20120;-89
2023/08/22 11:09:57;;;;;;;3.63;1.30;;;24.80;99.90;;;;;;5018364;28;20141;-88
2023/08/22 11:12:26;;;;;;;3.97;1.20;;;24.80;99.90;;;;;;5031853;28;20108;-87
2023/08/22 11:14:54;;;;;;;5.10;1.30;;;24.90;99.90;;;;;;4994911;28;20107;-94
2023/08/22 11:17:21;;;;;;;2.33;1.40;;;25.00;99.90;;;;;;5012416;28;20037;-91
2023/08/22 11:19:51;;;;;;;3.17;1.23;;;25.00;99.90;;;;;;5031123;28;20794;-87
2023/08/22 11:22:17;;;;;;;4.32;1.40;;;25.10;99.90;;;;;;5032141;28;20505;-89
2023/08/22 11:24:46;;;;;;;4.97;1.05;;;25.00;99.90;;;;;;5012740;28;20099;-87
2023/08/22 11:27:16;;;;;;;9.40;1.45;;;24.90;99.90;;;;;;5012085;28;20049;-88
2023/08/22 11:29:50;;;;;;;2.25;1.25;;;24.90;99.90;;;;;;5014049;28;20497;-88
2023/08/22 11:32:25;;;;;;;4.00;1.23;;;25.00;99.90;;;;;;5031855;28;20105;-89
2023/08/22 11:34:53;;;;;;;1.95;1.10;;;25.00;99.90;;;;;;5030951;28;20017;-92
2023/08/22 11:37:19;;;;;;;7.30;1.20;;;24.90;99.90;;;;;;5031465;28;20036;-88
2023/08/22 11:39:55;;;;;;;4.43;1.13;;;24.90;99.90;;;;;;5029802;28;20045;-93
2023/08/22 11:42:24;;;;;;;6.13;1.35;;;24.90;99.90;;;;;;5018793;28;20460;-88
2023/08/22 11:45:02;;;;;;;2.55;1.20;;;25.00;99.90;;;;;;5014277;28;20033;-92
2023/08/22 11:47:40;;;;;;;2.40;1.20;;;25.10;99.90;;;;;;5031755;28;20041;-92
2023/08/22 11:50:10;;;;;;;2.72;1.02;;;25.30;99.90;;;;;;5015161;28;20029;-95
2023/08/22 11:52:39;;;;;;;3.58;1.30;;;25.20;99.90;;;;;;5014653;28;20053;-93
2023/08/22 11:55:07;;;;;;;4.97;1.30;;;25.00;99.90;;;;;;5012941;28;20076;-89
2023/08/22 11:57:35;;;;;;;2.08;1.10;;;25.10;99.90;;;;;;5031010;28;20052;-89
2023/08/22 12:00:04;;;;;;;4.32;0.93;;;25.00;99.90;;;;;;5032321;28;20087;-93
2023/08/22 12:02:30;;;;;;;1.77;1.00;;;25.10;99.90;;;;;;5031987;28;20025;-92
2023/08/22 12:04:55;;;;;;;7.30;1.40;;;24.80;99.90;;;;;;5032239;28;20044;-93
2023/08/22 12:07:24;;;;;;;1.23;0.80;;;24.90;99.90;;;;;;5032446;28;20034;-91
2023/08/22 12:10:03;;;;;;;3.70;1.00;;;25.10;99.90;;;;;;5038902;28;20033;-91
2023/08/22 12:12:30;;;;;;;4.35;1.05;;;25.00;99.90;;;;;;5030365;28;20452;-87
2023/08/22 12:14:56;;;;;;;2.65;0.90;;;25.10;99.90;;;;;;5031032;28;20084;-88
2023/08/22 12:17:22;;;;;;;4.88;1.27;;;25.10;99.90;;;;;;5011170;28;20083;-90
2023/08/22 12:19:48;;;;;;;3.22;0.95;;;25.10;99.90;;;;;;5030200;28;20021;-87
2023/08/22 12:22:14;;;;;;;2.97;1.05;;;25.30;99.90;;;;;;5030575;28;20026;-88
2023/08/22 12:24:41;;;;;;;4.60;1.00;;;25.30;99.90;;;;;;5031588;28;20034;-88
2023/08/22 12:27:07;;;;;;;3.50;0.90;;;25.20;99.90;;;;;;5031815;28;20034;-87
2023/08/22 12:29:33;;;;;;;4.95;0.95;;;25.10;99.90;;;;;;5012733;28;20041;-88
2023/08/22 12:31:58;;;;;;;3.72;1.00;;;25.10;99.90;;;;;;5033476;28;20017;-88
2023/08/22 12:34:24;;;;;;;3.25;1.10;;;25.20;99.90;;;;;;5013615;28;20086;-88
2023/08/22 12:36:50;;;;;;;2.70;1.02;;;25.30;99.90;;;;;;5030005;28;20520;-87
2023/08/22 12:39:16;;;;;;;3.38;1.40;;;25.30;99.90;;;;;;5037978;28;20107;-90
2023/08/22 12:41:42;;;;;;;3.15;1.05;;;25.20;99.90;;;;;;5052225;28;20428;-92
2023/08/22 12:44:08;;;;;;;3.28;1.02;;;25.10;99.90;;;;;;5052407;28;20036;-87
2023/08/22 12:46:33;;;;;;;3.17;0.90;;;25.10;99.90;;;;;;5051864;28;20408;-91
2023/08/22 12:48:59;;;;;;;7.50;1.33;;;25.20;99.90;;;;;;5051500;28;20029;-90
2023/08/22 12:51:24;;;;;;;2.70;0.90;;;25.10;99.90;;;;;;5034331;28;20021;-88
2023/08/22 12:53:50;;;;;;;2.95;0.88;;;25.20;99.90;;;;;;5050820;28;20461;-92
2023/08/22 12:56:16;;;;;;;5.43;0.75;;;25.20;99.90;;;;;;5020355;28;20409;-91
2023/08/22 12:58:44;;;;;;;5.00;0.98;;;25.20;99.90;;;;;;5031835;28;20025;-87
2023/08/22 13:01:10;;;;;;;2.90;1.05;;;25.30;99.90;;;;;;5048112;28;20021;-94
2023/08/22 13:03:36;;;;;;;2.15;0.70;;;25.30;99.90;;;;;;5036341;28;20040;-93
2023/08/22 13:06:02;;;;;;;3.30;1.10;;;25.40;99.90;;;;;;5032989;28;20501;-90
2023/08/22 13:08:28;;;;;;;3.47;1.10;;;25.30;99.90;;;;;;5032238;28;20037;-93
2023/08/22 13:10:54;;;;;;;3.67;1.15;;;25.30;99.90;;;;;;5031648;28;20029;-90